SEKCJA WYDRUKÓW, pokaż »

METAR EPBY 280800Z 21003KT 160V270 9999 OVC027 M02/M05 Q1026=

METAR EPGD 280800Z 17003KT 9999 BKN026 M01/M04 Q1025 =

METAR EPKK 280800Z 04008KT 9999 SCT017 BKN024 M01/M05 Q1022 =

METAR EPKT 280800Z 02007KT 9999 SCT023 BKN029 M02/M06 Q1022 =

METAR EPLB 280800Z 02003KT 360V060 9999 SCT009 OVC024 M01/M02 Q1023 =

METAR EPLL 280800Z 01005KT 330V030 5000 -FZDZ BR OVC002 M01/M01 Q1024
=

METAR EPML 280800Z AUTO 36006KT 330V050 9999 ///////// M02/M05 Q1023=

METAR EPMO 280800Z 34005KT 4400 -SN BR SCT006 OVC019 M00/M00 Q1024 =

METAR EPPO 280800Z 05004KT 020V090 9999 OVC025 M02/M07 Q1026 =

METAR EPRA 280800Z NIL=

METAR EPRZ 280800Z 02010KT 9999 OVC015 M02/M05 Q1022 =

METAR EPSC 280800Z 32002KT 9999 OVC030 00/M02 Q1027 =

METAR EPSY 280800Z 36003KT 9999 BKN024 M02/M03 Q1025=

METAR EPWA 280800Z 03004KT 350V080 8000 -RA BKN007 OVC020 00/M01
Q1024 NOSIG=

METAR EPWR 280800Z 01007KT 8000 OVC006 M01/M02 Q1025 =

METAR EPZG 280800Z VRB01KT 9999 OVC024 M02/M03 Q1027 =